Time;durP1;ratioP1;P1;durP2;ratioP2;P2;SDS_P1;SDS_P2;PMS_P1;PMS_P2;Temp;Humidity;BMP_temperature;BMP_pressure;BME280_temperature;BME280_humidity;BME280_pressure;Samples;Min_cycle;Max_cycle;Signal;HPM_P1;HPM_P2
2022/02/28 00:02:10;;;;;;;82.35;76.35;;;;;;;1.00;100.00;101868.75;5013622;28;20053;-80
2022/02/28 00:04:38;;;;;;;80.55;74.53;;;;;;;1.29;100.00;101871.81;5013730;28;20050;-80
2022/02/28 00:07:05;;;;;;;78.90;72.80;;;;;;;1.18;100.00;101866.53;5014141;28;20049;-81
2022/02/28 00:09:32;;;;;;;66.00;60.90;;;;;;;1.33;100.00;101875.84;5014044;28;20057;-82
2022/02/28 00:11:58;;;;;;;75.68;70.22;;;;;;;1.13;100.00;101877.38;5013655;28;20556;-81
2022/02/28 00:14:25;;;;;;;81.65;75.70;;;;;;;1.19;100.00;101874.28;5013960;28;20107;-80
2022/02/28 00:16:52;;;;;;;78.78;72.75;;;;;;;1.10;100.00;101877.59;5016282;28;20061;-80
2022/02/28 00:19:19;;;;;;;78.82;73.25;;;;;;;1.20;100.00;101872.50;5017401;28;20112;-83
2022/02/28 00:21:47;;;;;;;74.50;69.10;;;;;;;1.29;100.00;101871.81;5017954;28;20077;-80
2022/02/28 00:24:14;;;;;;;72.03;66.57;;;;;;;1.12;100.00;101880.91;5017733;28;20104;-80
2022/02/28 00:26:41;;;;;;;70.93;65.72;;;;;;;1.19;100.00;101870.84;5017359;28;20064;-80
2022/02/28 00:29:08;;;;;;;79.25;73.30;;;;;;;1.10;100.00;101867.97;5017325;28;20053;-81
2022/02/28 00:31:35;;;;;;;75.60;69.95;;;;;;;1.12;100.00;101859.97;5017469;28;20124;-80
2022/02/28 00:34:01;;;;;;;77.93;71.38;;;;;;;1.23;100.00;101859.19;5017081;28;20046;-82
2022/02/28 00:36:28;;;;;;;80.13;74.32;;;;;;;1.09;100.00;101852.38;5016990;28;20050;-81
2022/02/28 00:38:56;;;;;;;78.20;72.35;;;;;;;1.21;100.00;101855.84;5017226;28;20112;-83
2022/02/28 00:41:23;;;;;;;79.03;72.82;;;;;;;1.14;100.00;101853.69;5017426;28;20050;-81
2022/02/28 00:43:50;;;;;;;79.03;72.38;;;;;;;1.04;100.00;101850.13;5017037;28;20115;-82
2022/02/28 00:46:17;;;;;;;77.30;71.43;;;;;;;1.16;100.00;101858.81;5017356;28;20053;-83
2022/02/28 00:48:43;;;;;;;75.05;69.32;;;;;;;1.06;100.00;101849.97;5017131;28;20053;-80
2022/02/28 00:51:10;;;;;;;78.00;72.15;;;;;;;1.18;100.00;101856.06;5017186;28;20046;-84
2022/02/28 00:53:37;;;;;;;73.60;67.75;;;;;;;1.10;100.00;101848.81;5016952;28;20112;-80
2022/02/28 00:56:06;;;;;;;81.85;75.70;;;;;;;1.09;100.00;101845.38;5016972;28;20112;-83
2022/02/28 00:58:33;;;;;;;82.13;76.20;;;;;;;1.12;100.00;101841.66;5016851;28;20107;-81
2022/02/28 01:00:59;;;;;;;82.07;76.22;;;;;;;1.00;100.00;101835.59;5016575;28;20116;-83
2022/02/28 01:03:27;;;;;;;76.97;71.18;;;;;;;0.95;100.00;101840.34;5016667;28;20050;-81
2022/02/28 01:05:54;;;;;;;81.65;75.45;;;;;;;1.03;100.00;101845.84;5016808;28;20113;-80
2022/02/28 01:08:21;;;;;;;82.45;76.25;;;;;;;1.01;100.00;101842.50;5016669;28;20054;-83
2022/02/28 01:10:49;;;;;;;84.60;78.22;;;;;;;1.04;100.00;101844.06;5016873;28;20061;-80
2022/02/28 01:13:17;;;;;;;86.20;79.47;;;;;;;0.96;100.00;101835.94;5016536;28;20053;-81
2022/02/28 01:15:44;;;;;;;96.28;89.30;;;;;;;1.02;100.00;101838.91;5016543;28;20054;-83
2022/02/28 01:18:11;;;;;;;86.50;79.68;;;;;;;0.99;100.00;101840.94;5016282;28;20046;-82
2022/02/28 01:20:38;;;;;;;76.82;71.03;;;;;;;0.84;100.00;101838.53;5016455;28;20057;-82
2022/02/28 01:23:05;;;;;;;81.72;75.25;;;;;;;0.96;100.00;101843.78;5016548;28;20100;-80
2022/02/28 01:25:32;;;;;;;88.60;82.18;;;;;;;0.99;100.00;101847.00;5016362;28;20050;-80
2022/02/28 01:27:58;;;;;;;82.60;76.50;;;;;;;0.90;100.00;101845.09;5015200;28;20116;-83
2022/02/28 01:30:27;;;;;;;87.97;81.63;;;;;;;1.05;100.00;101843.09;5016529;28;20050;-82
2022/02/28 01:32:54;;;;;;;87.68;81.22;;;;;;;1.08;100.00;101843.69;5016289;28;20111;-80
2022/02/28 01:35:20;;;;;;;91.85;85.32;;;;;;;1.03;100.00;101840.59;5016093;28;20124;-80
2022/02/28 01:37:47;;;;;;;83.13;77.00;;;;;;;1.01;100.00;101842.50;5015997;28;20123;-81
2022/02/28 01:40:16;;;;;;;78.72;73.32;;;;;;;1.06;100.00;101836.91;5016243;28;20046;-80
2022/02/28 01:42:43;;;;;;;84.40;78.20;;;;;;;1.00;100.00;101837.38;5015787;28;20121;-80
2022/02/28 01:45:12;;;;;;;84.40;78.30;;;;;;;1.23;100.00;101839.06;5016139;28;20457;-80
2022/02/28 01:47:41;;;;;;;78.75;73.15;;;;;;;0.97;100.00;101835.84;5016224;28;20054;-80
2022/02/28 01:50:09;;;;;;;74.28;69.00;;;;;;;1.01;100.00;101826.81;5017120;28;20077;-80
2022/02/28 01:52:35;;;;;;;72.75;67.35;;;;;;;0.95;100.00;101824.66;5016390;28;20116;-80
2022/02/28 01:55:03;;;;;;;73.72;68.22;;;;;;;1.01;100.00;101818.13;5015444;28;20050;-80
2022/02/28 01:57:30;;;;;;;77.15;71.43;;;;;;;0.94;100.00;101823.00;5015857;28;20049;-82
2022/02/28 01:59:57;;;;;;;103.45;96.32;;;;;;;1.02;100.00;101825.84;5015458;28;20449;-82
2022/02/28 02:02:23;;;;;;;88.68;82.15;;;;;;;0.94;100.00;101828.22;5015131;28;20471;-83
2022/02/28 02:04:51;;;;;;;95.13;88.63;;;;;;;0.96;100.00;101825.47;5016359;28;20046;-80
2022/02/28 02:07:18;;;;;;;101.03;94.07;;;;;;;0.86;100.00;101823.56;5015626;28;20054;-80
2022/02/28 02:09:45;;;;;;;93.30;86.82;;;;;;;0.88;100.00;101823.47;5015996;28;20062;-81
2022/02/28 02:12:12;;;;;;;94.40;87.80;;;;;;;0.96;100.00;101818.47;5015494;28;20085;-83
2022/02/28 02:14:39;;;;;;;90.03;83.80;;;;;;;0.94;100.00;101814.28;5015391;28;20050;-81
2022/02/28 02:17:07;;;;;;;79.45;73.75;;;;;;;0.88;100.00;101813.00;5015425;28;20108;-80
2022/02/28 02:19:37;;;;;;;90.97;84.22;;;;;;;0.91;100.00;101810.97;5015437;28;20140;-81
2022/02/28 02:22:06;;;;;;;73.03;67.18;;;;;;;0.88;100.00;101811.22;5015216;28;20479;-84
2022/02/28 02:24:34;;;;;;;85.80;79.15;;;;;;;0.68;100.00;101812.69;5015472;28;20053;-80
2022/02/28 02:27:00;;;;;;;83.97;77.18;;;;;;;0.69;100.00;101803.06;5015361;28;20442;-79
2022/02/28 02:29:27;;;;;;;82.97;76.60;;;;;;;0.74;100.00;101803.56;5015241;28;20049;-81
2022/02/28 02:31:54;;;;;;;92.43;85.55;;;;;;;0.97;100.00;101803.59;5015000;28;20509;-84
2022/02/28 02:34:21;;;;;;;102.43;95.38;;;;;;;1.17;100.00;101802.06;5015059;28;20046;-80
2022/02/28 02:36:48;;;;;;;93.93;87.05;;;;;;;1.17;100.00;101799.47;5015500;28;20085;-81
2022/02/28 02:39:16;;;;;;;84.05;77.85;;;;;;;1.05;100.00;101807.28;5015013;28;20466;-80
2022/02/28 02:41:43;;;;;;;85.22;78.82;;;;;;;1.08;100.00;101796.59;5015143;28;20089;-83
2022/02/28 02:44:10;;;;;;;89.55;82.97;;;;;;;1.14;100.00;101795.28;5014767;28;20134;-81
2022/02/28 02:46:45;;;;;;;86.45;80.43;;;;;;;1.13;100.00;101785.78;5014939;28;20104;-81
2022/02/28 02:49:13;;;;;;;75.55;69.95;;;;;;;1.12;100.00;101784.94;5015244;28;20054;-84
2022/02/28 02:51:40;;;;;;;79.00;73.10;;;;;;;0.95;100.00;101801.09;5014907;28;20830;-83
2022/02/28 02:54:08;;;;;;;83.55;77.70;;;;;;;1.07;100.00;101792.31;5014927;28;20050;-83
2022/02/28 02:56:36;;;;;;;73.38;67.80;;;;;;;1.14;100.00;101797.91;5014245;28;20053;-81
2022/02/28 02:59:03;;;;;;;66.18;61.28;;;;;;;1.18;100.00;101798.50;5014523;28;20125;-80
2022/02/28 03:01:30;;;;;;;87.57;81.70;;;;;;;0.95;100.00;101795.88;5144505;22;20049;-82
2022/02/28 03:03:56;;;;;;;91.75;85.13;;;;;;;0.97;100.00;101791.38;5053890;28;20118;-81
2022/02/28 03:06:23;;;;;;;95.53;88.50;;;;;;;1.05;100.00;101796.00;5054376;28;20049;-81
2022/02/28 03:08:50;;;;;;;84.82;78.57;;;;;;;0.91;100.00;101791.84;5054507;28;20068;-80
2022/02/28 03:11:17;;;;;;;88.10;81.68;;;;;;;0.96;100.00;101794.91;5054438;28;20122;-81
2022/02/28 03:13:45;;;;;;;87.25;80.82;;;;;;;1.04;100.00;101786.50;5054041;28;20041;-81
2022/02/28 03:16:12;;;;;;;88.28;82.18;;;;;;;0.94;100.00;101788.97;5054011;28;20053;-80
2022/02/28 03:18:39;;;;;;;93.28;86.15;;;;;;;0.89;100.00;101789.31;5054358;28;20060;-82
2022/02/28 03:21:05;;;;;;;74.07;68.93;;;;;;;0.80;100.00;101787.41;5054148;28;20061;-81
2022/02/28 03:23:33;;;;;;;77.13;71.65;;;;;;;0.95;100.00;101788.03;5054009;28;20056;-81
2022/02/28 03:26:00;;;;;;;80.30;74.50;;;;;;;0.78;100.00;101788.47;5054150;28;20077;-80
2022/02/28 03:28:27;;;;;;;79.63;73.88;;;;;;;0.79;100.00;101787.53;5053922;28;20118;-81
2022/02/28 03:30:55;;;;;;;92.63;85.75;;;;;;;0.93;100.00;101786.47;5054193;28;20123;-82
2022/02/28 03:33:22;;;;;;;93.35;86.65;;;;;;;0.89;100.00;101791.09;5054094;28;20088;-82
2022/02/28 03:35:48;;;;;;;90.65;83.85;;;;;;;0.82;100.00;101782.91;5053675;28;20052;-81
2022/02/28 03:38:15;;;;;;;79.25;73.32;;;;;;;0.72;100.00;101788.94;5054000;28;20052;-81
2022/02/28 03:40:44;;;;;;;78.82;72.88;;;;;;;0.72;100.00;101787.13;5053959;28;20052;-83
2022/02/28 03:43:11;;;;;;;90.78;84.65;;;;;;;0.79;100.00;101782.31;5053806;28;20049;-80
2022/02/28 03:45:38;;;;;;;93.00;86.70;;;;;;;0.79;100.00;101782.31;5054100;28;20079;-80
2022/02/28 03:48:06;;;;;;;91.35;84.65;;;;;;;0.86;100.00;101788.72;5053593;28;20052;-82
2022/02/28 03:50:33;;;;;;;80.30;73.45;;;;;;;0.74;100.00;101780.03;5054002;28;20049;-81
2022/02/28 03:53:00;;;;;;;80.18;74.38;;;;;;;0.81;100.00;101778.59;5057738;28;20059;-80
2022/02/28 03:55:27;;;;;;;75.43;69.78;;;;;;;0.89;100.00;101784.09;5057859;28;20045;-83
2022/02/28 03:57:54;;;;;;;82.78;76.65;;;;;;;0.67;100.00;101782.28;5057638;28;20122;-80
2022/02/28 04:00:21;;;;;;;80.57;74.88;;;;;;;0.94;100.00;101782.91;5057769;28;20048;-84
2022/02/28 04:02:47;;;;;;;73.60;68.45;;;;;;;0.75;100.00;101781.69;5055961;28;20475;-80
2022/02/28 04:05:16;;;;;;;55.13;50.35;;;;;;;0.84;100.00;101780.97;5057651;28;20049;-80
2022/02/28 04:07:44;;;;;;;61.20;56.10;;;;;;;0.89;100.00;101772.78;5057353;28;20497;-82
2022/02/28 04:10:11;;;;;;;79.22;73.57;;;;;;;0.91;100.00;101769.13;5057448;28;20082;-84
2022/02/28 04:12:38;;;;;;;69.55;64.25;;;;;;;0.93;100.00;101782.06;5057497;28;20052;-81
2022/02/28 04:15:05;;;;;;;76.78;71.30;;;;;;;0.92;100.00;101775.19;5057639;28;20053;-83
2022/02/28 04:17:33;;;;;;;64.35;59.70;;;;;;;0.88;100.00;101786.84;5057766;28;20122;-81
2022/02/28 04:20:00;;;;;;;59.45;55.22;;;;;;;0.81;100.00;101780.38;5057261;28;20095;-80
2022/02/28 04:22:40;;;;;;;61.30;56.90;;;;;;;0.80;100.00;101782.16;5057890;28;20122;-80
2022/02/28 04:25:09;;;;;;;66.30;61.88;;;;;;;1.06;100.00;101779.34;5057234;28;20139;-81
2022/02/28 04:27:35;;;;;;;53.17;49.45;;;;;;;1.15;100.00;101789.13;5057439;28;20447;-81
2022/02/28 04:30:02;;;;;;;56.25;51.90;;;;;;;0.87;100.00;101780.75;5057146;28;20049;-81
2022/02/28 04:32:29;;;;;;;63.22;58.45;;;;;;;0.62;100.00;101779.16;5057405;28;20053;-81
2022/02/28 04:34:56;;;;;;;68.82;63.53;;;;;;;1.15;100.00;101778.66;5056972;28;20057;-80
2022/02/28 04:37:23;;;;;;;70.63;64.80;;;;;;;0.81;100.00;101777.78;5057145;28;20406;-80
2022/02/28 04:39:51;;;;;;;77.80;71.22;;;;;;;0.68;100.00;101778.69;5056608;28;20114;-83
2022/02/28 04:42:18;;;;;;;72.97;66.85;;;;;;;0.61;100.00;101776.66;5057010;28;20068;-81
2022/02/28 04:44:45;;;;;;;65.70;59.75;;;;;;;0.53;100.00;101773.78;5057181;28;20052;-82
2022/02/28 04:47:11;;;;;;;75.45;69.43;;;;;;;0.58;100.00;101779.53;5057507;28;20451;-83
2022/02/28 04:49:38;;;;;;;72.05;66.95;;;;;;;0.50;100.00;101776.63;5056974;28;20053;-81
2022/02/28 04:52:05;;;;;;;67.00;62.22;;;;;;;0.47;100.00;101780.31;5056889;28;20045;-80
2022/02/28 04:54:32;;;;;;;55.13;50.92;;;;;;;0.66;100.00;101777.13;5056893;28;20049;-80
2022/02/28 04:57:00;;;;;;;51.97;48.05;;;;;;;0.42;100.00;101785.03;5056997;28;20049;-80
2022/02/28 04:59:27;;;;;;;51.30;47.13;;;;;;;0.37;100.00;101782.78;5056660;28;20048;-80
2022/02/28 05:01:54;;;;;;;60.10;55.30;;;;;;;0.31;100.00;101785.00;5055164;28;20065;-83
2022/02/28 05:04:20;;;;;;;77.07;71.57;;;;;;;0.33;100.00;101785.72;5056402;28;20049;-79
2022/02/28 05:06:47;;;;;;;83.03;76.97;;;;;;;0.41;100.00;101797.28;5056262;28;20424;-80
2022/02/28 05:09:15;;;;;;;78.72;72.35;;;;;;;0.42;100.00;101788.50;5056836;28;20041;-83
2022/02/28 05:11:42;;;;;;;71.47;65.85;;;;;;;0.34;100.00;101793.47;5056446;28;20516;-83
2022/02/28 05:14:10;;;;;;;78.35;72.28;;;;;;;0.42;100.00;101798.97;5056068;28;20041;-80
2022/02/28 05:16:37;;;;;;;71.68;65.50;;;;;;;0.34;100.00;101800.47;5056375;28;20080;-80
2022/02/28 05:19:04;;;;;;;73.82;68.03;;;;;;;0.31;100.00;101801.53;5056318;28;20049;-83
2022/02/28 05:21:31;;;;;;;65.18;60.20;;;;;;;0.34;100.00;101811.75;5056255;28;20114;-80
2022/02/28 05:23:58;;;;;;;71.97;65.88;;;;;;;0.33;100.00;101807.44;5055880;28;20052;-82
2022/02/28 05:26:25;;;;;;;76.03;70.32;;;;;;;0.40;100.00;101802.63;5056108;28;20052;-81
2022/02/28 05:28:51;;;;;;;83.30;76.60;;;;;;;0.29;100.00;101810.41;5056077;28;20052;-79
2022/02/28 05:31:19;;;;;;;79.35;72.60;;;;;;;0.39;100.00;101809.63;5055770;28;20111;-81
2022/02/28 05:33:46;;;;;;;81.55;74.63;;;;;;;0.37;100.00;101808.09;5055750;28;20053;-83
2022/02/28 05:36:13;;;;;;;71.85;65.63;;;;;;;0.17;100.00;101812.13;5055784;28;20060;-81
2022/02/28 05:38:40;;;;;;;76.10;69.22;;;;;;;0.23;100.00;101807.28;5055851;28;20056;-83
2022/02/28 05:41:06;;;;;;;77.53;71.93;;;;;;;0.15;100.00;101814.03;5055886;28;20057;-83
2022/02/28 05:43:33;;;;;;;78.38;72.15;;;;;;;0.21;100.00;101811.81;5055826;28;20126;-81
2022/02/28 05:46:00;;;;;;;72.63;66.57;;;;;;;0.16;100.00;101810.47;5055670;28;20045;-80
2022/02/28 05:48:28;;;;;;;73.32;66.90;;;;;;;0.25;100.00;101814.22;5056001;28;20083;-82
2022/02/28 05:50:55;;;;;;;76.65;70.63;;;;;;;0.21;100.00;101817.03;5055420;28;20053;-80
2022/02/28 05:53:22;;;;;;;79.25;72.28;;;;;;;0.19;100.00;101813.69;5055164;28;20119;-82
2022/02/28 05:55:48;;;;;;;84.63;77.82;;;;;;;0.15;100.00;101820.09;5055834;28;20060;-80
2022/02/28 05:58:15;;;;;;;84.95;77.45;;;;;;;0.13;100.00;101819.38;5055447;28;20060;-83
2022/02/28 06:00:42;;;;;;;76.55;69.40;;;;;;;0.15;100.00;101827.09;5055486;28;20057;-80
2022/02/28 06:03:09;;;;;;;72.70;66.32;;;;;;;0.12;100.00;101822.94;5053757;28;20118;-80
2022/02/28 06:05:37;;;;;;;78.75;71.25;;;;;;;0.29;100.00;101833.94;5055019;28;20099;-80
2022/02/28 06:08:04;;;;;;;84.32;77.05;;;;;;;0.22;100.00;101837.00;5055471;28;20049;-81
2022/02/28 06:10:31;;;;;;;79.40;72.22;;;;;;;0.35;100.00;101834.31;5055452;28;20060;-80
2022/02/28 06:12:58;;;;;;;86.30;79.13;;;;;;;0.20;100.00;101836.25;5054905;28;20122;-82
2022/02/28 06:15:24;;;;;;;82.20;75.35;;;;;;;0.09;100.00;101838.84;5054899;28;20041;-82
2022/02/28 06:17:51;;;;;;;74.38;67.68;;;;;;;0.14;100.00;101839.31;5054629;28;20053;-81
2022/02/28 06:20:18;;;;;;;76.50;69.43;;;;;;;0.21;100.00;101843.19;5055012;28;20049;-83
2022/02/28 06:22:46;;;;;;;86.60;79.70;;;;;;;0.54;100.00;101846.03;5055643;28;20053;-83
2022/02/28 06:25:13;;;;;;;88.82;81.28;;;;;;;0.13;100.00;101857.72;5054994;28;20044;-80
2022/02/28 06:27:39;;;;;;;90.47;83.00;;;;;;;0.02;100.00;101849.81;5055433;28;20440;-81
2022/02/28 06:30:08;;;;;;;102.75;94.65;;;;;;;0.11;100.00;101852.59;5054482;28;20057;-79
2022/02/28 06:32:36;;;;;;;101.78;93.32;;;;;;;0.12;100.00;101858.66;5054608;28;20049;-80
2022/02/28 06:35:04;;;;;;;98.30;90.28;;;;;;;0.16;100.00;101860.94;5054473;28;20080;-79
2022/02/28 06:37:31;;;;;;;90.90;84.00;;;;;;;0.35;100.00;101864.84;5054356;28;20477;-82
2022/02/28 06:39:59;;;;;;;81.40;74.82;;;;;;;0.18;100.00;101871.28;5054591;28;20049;-81
2022/02/28 06:42:25;;;;;;;82.82;76.38;;;;;;;0.05;100.00;101865.28;5054434;28;20382;-80
2022/02/28 06:44:52;;;;;;;86.70;79.30;;;;;;;0.11;100.00;101863.06;5054496;28;20053;-84
2022/02/28 06:47:19;;;;;;;90.43;82.65;;;;;;;-0.05;100.00;101865.94;5054648;28;20053;-80
2022/02/28 06:49:46;;;;;;;98.68;89.95;;;;;;;-0.07;100.00;101874.81;5054593;28;20137;-84
2022/02/28 06:52:12;;;;;;;101.25;91.55;;;;;;;0.03;100.00;101872.38;5054115;28;20534;-81
2022/02/28 06:54:40;;;;;;;96.35;87.78;;;;;;;0.05;100.00;101873.94;5054382;28;20061;-81
2022/02/28 06:57:08;;;;;;;100.85;91.97;;;;;;;-0.04;100.00;101874.59;5054552;28;20072;-83
2022/02/28 06:59:36;;;;;;;99.53;90.32;;;;;;;-0.01;100.00;101874.38;5054505;28;20056;-80
2022/02/28 07:02:03;;;;;;;98.97;89.40;;;;;;;0.01;100.00;101892.56;5053170;28;20088;-81
2022/02/28 07:04:30;;;;;;;98.25;88.82;;;;;;;-0.02;100.00;101894.44;5054349;28;20056;-82
2022/02/28 07:06:56;;;;;;;93.85;84.90;;;;;;;0.37;100.00;101895.16;5054486;28;20048;-80
2022/02/28 07:09:24;;;;;;;90.32;81.72;;;;;;;0.21;100.00;101891.97;5054032;28;20469;-81
2022/02/28 07:11:51;;;;;;;86.38;78.93;;;;;;;0.07;100.00;101889.53;5053944;28;20045;-80
2022/02/28 07:14:19;;;;;;;72.55;66.38;;;;;;;0.12;100.00;101887.41;5054371;28;20048;-80
2022/02/28 07:16:46;;;;;;;68.38;62.42;;;;;;;-0.01;100.00;101896.09;5054368;28;20048;-80
2022/02/28 07:19:13;;;;;;;85.47;78.00;;;;;;;0.20;100.00;101893.75;5054233;28;20041;-80
2022/02/28 07:21:40;;;;;;;90.78;82.85;;;;;;;0.03;100.00;101893.28;5054314;28;20049;-81
2022/02/28 07:24:06;;;;;;;95.97;87.30;;;;;;;0.08;100.00;101899.03;5053993;28;20049;-83
2022/02/28 07:26:35;;;;;;;97.05;89.03;;;;;;;0.22;100.00;101898.88;5052808;28;20115;-83
2022/02/28 07:29:02;;;;;;;98.10;88.95;;;;;;;0.33;100.00;101904.16;5053716;28;20127;-83
2022/02/28 07:31:30;;;;;;;93.97;85.57;;;;;;;0.25;100.00;101901.28;5054208;28;20049;-83
2022/02/28 07:33:57;;;;;;;95.25;87.28;;;;;;;0.31;100.00;101900.00;5053799;28;20457;-83
2022/02/28 07:36:23;;;;;;;101.68;93.30;;;;;;;0.49;100.00;101903.91;5053836;28;20477;-80
2022/02/28 07:38:50;;;;;;;98.93;90.63;;;;;;;0.28;100.00;101901.06;5053794;28;20053;-80
2022/02/28 07:41:17;;;;;;;104.60;96.20;;;;;;;0.39;100.00;101914.19;5053568;28;20471;-80
2022/02/28 07:43:44;;;;;;;102.40;93.90;;;;;;;0.47;100.00;101910.19;5054094;28;20076;-81
2022/02/28 07:46:10;;;;;;;91.28;83.97;;;;;;;0.58;100.00;101913.69;5053766;28;20134;-80
2022/02/28 07:48:38;;;;;;;90.30;83.47;;;;;;;0.59;100.00;101912.72;5053833;28;20106;-85
2022/02/28 07:51:05;;;;;;;93.72;86.85;;;;;;;0.64;100.00;101920.25;5053864;28;20142;-80
2022/02/28 07:53:32;;;;;;;101.60;94.00;;;;;;;0.61;100.00;101915.25;5053736;28;20118;-81
2022/02/28 07:55:59;;;;;;;102.28;94.50;;;;;;;0.52;100.00;101915.94;5053868;28;20060;-81
2022/02/28 07:58:26;;;;;;;101.10;93.30;;;;;;;0.55;100.00;101915.69;5053516;28;20053;-81
2022/02/28 08:00:52;;;;;;;97.43;89.50;;;;;;;0.69;100.00;101916.34;5053667;28;20119;-81
2022/02/28 08:03:19;;;;;;;102.47;94.72;;;;;;;0.73;100.00;101921.34;5052183;28;20290;-83
2022/02/28 08:05:47;;;;;;;97.65;90.15;;;;;;;0.79;100.00;101931.38;5053541;28;20122;-82
2022/02/28 08:08:14;;;;;;;100.68;93.07;;;;;;;0.77;100.00;101928.88;5053308;28;20049;-80
2022/02/28 08:10:41;;;;;;;95.38;87.60;;;;;;;1.20;100.00;101936.16;5053311;28;20052;-83
2022/02/28 08:13:11;;;;;;;85.07;77.90;;;;;;;0.84;100.00;101930.06;5053636;28;20049;-83
2022/02/28 08:15:38;;;;;;;89.30;82.28;;;;;;;0.99;100.00;101937.75;5053515;28;20053;-82
2022/02/28 08:18:05;;;;;;;89.10;82.20;;;;;;;1.12;100.00;101933.25;5053608;28;20076;-80
2022/02/28 08:20:32;;;;;;;90.45;83.45;;;;;;;1.14;100.00;101940.06;5053440;28;20483;-84
2022/02/28 08:23:01;;;;;;;96.25;88.97;;;;;;;0.87;100.00;101939.47;5053316;28;20060;-82
2022/02/28 08:25:27;;;;;;;85.85;79.22;;;;;;;1.10;100.00;101941.25;5052974;28;20060;-81
2022/02/28 08:27:54;;;;;;;97.32;88.80;;;;;;;1.14;100.00;101947.91;5053087;28;20056;-81
2022/02/28 08:30:21;;;;;;;93.80;86.47;;;;;;;1.21;100.00;101950.06;5053203;28;20090;-81
2022/02/28 08:32:48;;;;;;;94.93;86.88;;;;;;;1.16;100.00;101949.59;5053509;28;20432;-80
2022/02/28 08:35:17;;;;;;;99.75;92.05;;;;;;;1.17;100.00;101949.47;5053543;28;20425;-80
2022/02/28 08:37:44;;;;;;;96.53;88.53;;;;;;;1.21;100.00;101948.31;5056181;28;20049;-80
2022/02/28 08:40:13;;;;;;;92.47;85.43;;;;;;;1.09;100.00;101943.94;5056864;28;20041;-79
2022/02/28 08:42:40;;;;;;;92.68;85.85;;;;;;;1.29;100.00;101951.16;5056932;28;20067;-83
2022/02/28 08:45:08;;;;;;;94.88;86.38;;;;;;;1.78;100.00;101951.81;5057138;28;20041;-80
2022/02/28 08:47:35;;;;;;;87.22;80.55;;;;;;;1.46;100.00;101949.91;5056747;28;20045;-83
2022/02/28 08:50:02;;;;;;;80.70;74.13;;;;;;;1.81;100.00;101960.28;5056847;28;20139;-80
2022/02/28 08:52:31;;;;;;;89.28;82.85;;;;;;;1.53;100.00;101951.09;5056385;28;20049;-80
2022/02/28 08:54:58;;;;;;;93.80;86.60;;;;;;;1.55;100.00;101957.06;5056850;28;20144;-81
2022/02/28 08:57:26;;;;;;;89.55;82.43;;;;;;;1.90;100.00;101960.53;5056618;28;20045;-80
2022/02/28 08:59:53;;;;;;;90.20;83.05;;;;;;;1.58;100.00;101958.63;5056793;28;20053;-83
2022/02/28 09:02:19;;;;;;;92.55;85.45;;;;;;;1.97;100.00;101959.13;5055350;28;20456;-83
2022/02/28 09:04:46;;;;;;;81.43;75.22;;;;;;;1.77;100.00;101968.50;5056905;28;20475;-80
2022/02/28 09:07:14;;;;;;;83.78;77.57;;;;;;;1.71;100.00;101966.34;5056587;28;20107;-80
2022/02/28 09:09:41;;;;;;;90.97;83.82;;;;;;;1.81;100.00;101972.56;5056692;28;20110;-79
2022/02/28 09:12:09;;;;;;;87.38;80.28;;;;;;;1.96;100.00;101981.84;5056632;28;20053;-80
2022/02/28 09:14:38;;;;;;;93.00;85.32;;;;;;;2.32;100.00;101977.31;5056658;28;20378;-81
2022/02/28 09:17:06;;;;;;;77.13;70.38;;;;;;;1.95;100.00;101971.50;5056711;28;20481;-80
2022/02/28 09:19:33;;;;;;;79.50;73.03;;;;;;;1.95;100.00;101968.88;5056583;28;20045;-80
2022/02/28 09:22:00;;;;;;;87.05;80.45;;;;;;;2.23;100.00;101968.38;5056297;28;20118;-80
2022/02/28 09:24:28;;;;;;;91.93;85.07;;;;;;;2.13;100.00;101975.31;5056019;28;20056;-81
2022/02/28 09:26:55;;;;;;;86.25;79.68;;;;;;;2.39;100.00;101975.03;5056190;28;20397;-81
2022/02/28 09:29:22;;;;;;;87.38;80.68;;;;;;;2.18;100.00;101970.53;5056413;28;20115;-80
2022/02/28 09:31:50;;;;;;;85.32;78.60;;;;;;;2.21;100.00;101975.53;5056142;28;20056;-82
2022/02/28 09:34:17;;;;;;;87.43;81.03;;;;;;;2.59;100.00;101966.41;5056218;28;20044;-80
2022/02/28 09:36:43;;;;;;;83.93;78.07;;;;;;;2.49;100.00;101974.19;5056173;28;20473;-81
2022/02/28 09:39:10;;;;;;;77.50;71.47;;;;;;;2.75;100.00;101976.50;5056031;28;20465;-81
2022/02/28 09:41:38;;;;;;;91.45;85.03;;;;;;;2.19;100.00;101969.56;5056215;28;20049;-80
2022/02/28 09:44:07;;;;;;;96.45;89.75;;;;;;;2.52;100.00;101967.88;5055995;28;20136;-83
2022/02/28 09:46:34;;;;;;;90.95;84.50;;;;;;;2.42;100.00;101965.16;5055827;28;20049;-82
2022/02/28 09:49:02;;;;;;;90.57;84.00;;;;;;;2.73;100.00;101965.31;5054527;28;20056;-83
2022/02/28 09:51:29;;;;;;;85.03;78.72;;;;;;;2.70;100.00;101971.63;5055966;28;20061;-80
2022/02/28 09:53:56;;;;;;;84.28;78.68;;;;;;;3.32;100.00;101956.91;5056156;28;20048;-80
2022/02/28 09:56:24;;;;;;;85.18;79.32;;;;;;;2.39;100.00;101962.78;5056137;28;20052;-81
2022/02/28 09:58:52;;;;;;;86.55;80.35;;;;;;;2.40;100.00;101974.91;5055800;28;20053;-80
2022/02/28 10:01:19;;;;;;;82.10;75.85;;;;;;;2.28;100.00;101963.59;5055377;28;20106;-79
2022/02/28 10:03:46;;;;;;;90.22;83.43;;;;;;;2.25;100.00;101957.78;5053960;28;20122;-81
2022/02/28 10:06:14;;;;;;;85.60;79.10;;;;;;;2.48;100.00;101951.56;5055359;28;20408;-84
2022/02/28 10:08:44;;;;;;;93.00;85.68;;;;;;;2.45;100.00;101953.56;5055676;28;20084;-83
2022/02/28 10:11:27;;;;;;;85.30;78.80;;;;;;;3.10;100.00;101964.91;5055855;28;20059;-80
2022/02/28 10:13:57;;;;;;;78.28;72.60;;;;;;;2.79;100.00;101959.56;5053757;28;20057;-83
2022/02/28 10:16:31;;;;;;;76.90;70.82;;;;;;;2.67;100.00;101955.31;5055547;28;20048;-81
2022/02/28 10:18:58;;;;;;;89.55;82.35;;;;;;;2.78;100.00;101954.44;5055441;28;20045;-80
2022/02/28 10:21:42;;;;;;;77.35;71.40;;;;;;;2.77;100.00;101950.16;5055285;28;20045;-83
2022/02/28 10:24:11;;;;;;;72.03;66.20;;;;;;;2.41;100.00;101944.28;5055794;28;20049;-82
2022/02/28 10:26:41;;;;;;;71.20;65.50;;;;;;;2.66;100.00;101937.88;5055159;28;20053;-80
2022/02/28 10:29:10;;;;;;;66.88;61.50;;;;;;;2.64;100.00;101951.13;5055299;28;20060;-83
2022/02/28 10:31:39;;;;;;;66.15;61.15;;;;;;;2.16;100.00;101945.41;5055251;28;20045;-80
2022/02/28 10:34:14;;;;;;;65.78;60.88;;;;;;;2.52;100.00;101945.09;5054696;28;20132;-82
2022/02/28 10:36:45;;;;;;;71.53;66.13;;;;;;;1.83;100.00;101939.22;5055099;28;20056;-80
2022/02/28 10:39:12;;;;;;;76.97;71.18;;;;;;;2.08;100.00;101938.13;5055063;28;20131;-81
2022/02/28 10:41:41;;;;;;;72.90;67.72;;;;;;;1.83;100.00;101941.84;5055178;28;20086;-80
2022/02/28 10:44:10;;;;;;;74.10;68.40;;;;;;;1.81;100.00;101939.31;5054940;28;20076;-80
2022/02/28 10:46:42;;;;;;;79.38;73.18;;;;;;;1.91;100.00;101942.09;5054291;28;20045;-79
2022/02/28 10:49:15;;;;;;;89.22;81.82;;;;;;;1.64;100.00;101944.22;5054678;28;20063;-80
2022/02/28 10:51:49;;;;;;;95.65;88.30;;;;;;;1.66;100.00;101937.06;5054313;28;20139;-80
2022/02/28 10:54:22;;;;;;;88.68;81.68;;;;;;;1.55;100.00;101943.97;5054193;28;20114;-82
2022/02/28 10:56:52;;;;;;;103.32;95.03;;;;;;;1.43;100.00;101939.66;5054810;28;20103;-82
2022/02/28 10:59:20;;;;;;;99.82;91.68;;;;;;;1.65;100.00;101936.22;5054014;28;20057;-83
2022/02/28 11:01:47;;;;;;;101.07;93.20;;;;;;;1.46;100.00;101941.22;5053024;28;20110;-80
2022/02/28 11:04:15;;;;;;;102.50;94.72;;;;;;;1.53;100.00;101940.63;5054602;28;20052;-82
2022/02/28 11:06:43;;;;;;;106.93;99.15;;;;;;;1.52;100.00;101943.38;5054079;28;20115;-83
2022/02/28 11:09:11;;;;;;;108.05;100.05;;;;;;;1.37;100.00;101937.50;5054406;28;20060;-80
2022/02/28 11:11:38;;;;;;;102.20;94.68;;;;;;;1.91;100.00;101941.25;5054388;28;20052;-84